sensor_id;sensor_type;location;lat;lon;timestamp;P1;durP1;ratioP1;P2;durP2;ratioP2
6195;SDS011;3131;42.630;23.382;2023-04-30T00:01:05;11.97;;;7.37;;
6195;SDS011;3131;42.630;23.382;2023-04-30T00:03:34;10.97;;;6.77;;
6195;SDS011;3131;42.630;23.382;2023-04-30T00:06:04;8.73;;;5.90;;
6195;SDS011;3131;42.630;23.382;2023-04-30T00:08:33;14.07;;;6.20;;
6195;SDS011;3131;42.630;23.382;2023-04-30T00:11:02;12.20;;;6.90;;
6195;SDS011;3131;42.630;23.382;2023-04-30T00:13:32;11.87;;;6.20;;
6195;SDS011;3131;42.630;23.382;2023-04-30T00:16:01;11.00;;;6.13;;
6195;SDS011;3131;42.630;23.382;2023-04-30T00:18:31;15.47;;;6.03;;
6195;SDS011;3131;42.630;23.382;2023-04-30T00:21:00;13.27;;;7.00;;
6195;SDS011;3131;42.630;23.382;2023-04-30T00:23:30;17.87;;;8.07;;
6195;SDS011;3131;42.630;23.382;2023-04-30T00:25:59;13.07;;;6.27;;
6195;SDS011;3131;42.630;23.382;2023-04-30T00:28:28;17.60;;;8.63;;
6195;SDS011;3131;42.630;23.382;2023-04-30T00:30:57;13.67;;;8.40;;
6195;SDS011;3131;42.630;23.382;2023-04-30T00:33:27;15.70;;;8.03;;
6195;SDS011;3131;42.630;23.382;2023-04-30T00:35:56;19.60;;;8.37;;
6195;SDS011;3131;42.630;23.382;2023-04-30T00:38:25;20.50;;;9.40;;
6195;SDS011;3131;42.630;23.382;2023-04-30T00:40:54;17.97;;;8.80;;
6195;SDS011;3131;42.630;23.382;2023-04-30T00:43:24;16.40;;;8.70;;
6195;SDS011;3131;42.630;23.382;2023-04-30T00:45:53;16.47;;;8.47;;
6195;SDS011;3131;42.630;23.382;2023-04-30T00:48:23;15.57;;;8.63;;
6195;SDS011;3131;42.630;23.382;2023-04-30T00:50:53;13.63;;;7.03;;
6195;SDS011;3131;42.630;23.382;2023-04-30T00:53:22;13.37;;;7.23;;
6195;SDS011;3131;42.630;23.382;2023-04-30T00:55:52;9.37;;;6.40;;
6195;SDS011;3131;42.630;23.382;2023-04-30T00:58:22;11.40;;;6.70;;
6195;SDS011;3131;42.630;23.382;2023-04-30T01:00:51;9.47;;;6.07;;
6195;SDS011;3131;42.630;23.382;2023-04-30T01:03:21;9.47;;;6.13;;
6195;SDS011;3131;42.630;23.382;2023-04-30T01:05:50;11.30;;;5.83;;
6195;SDS011;3131;42.630;23.382;2023-04-30T01:08:20;10.37;;;6.57;;
6195;SDS011;3131;42.630;23.382;2023-04-30T01:10:53;11.23;;;6.13;;
6195;SDS011;3131;42.630;23.382;2023-04-30T01:13:25;8.57;;;5.70;;
6195;SDS011;3131;42.630;23.382;2023-04-30T01:15:58;7.80;;;5.50;;
6195;SDS011;3131;42.630;23.382;2023-04-30T01:18:30;13.97;;;5.57;;
6195;SDS011;3131;42.630;23.382;2023-04-30T01:21:12;9.90;;;4.60;;
6195;SDS011;3131;42.630;23.382;2023-04-30T01:26:28;5.93;;;4.87;;
6195;SDS011;3131;42.630;23.382;2023-04-30T01:28:58;6.83;;;4.57;;
6195;SDS011;3131;42.630;23.382;2023-04-30T01:31:29;13.47;;;5.37;;
6195;SDS011;3131;42.630;23.382;2023-04-30T01:34:01;7.27;;;4.67;;
6195;SDS011;3131;42.630;23.382;2023-04-30T01:36:37;5.93;;;4.67;;
6195;SDS011;3131;42.630;23.382;2023-04-30T01:39:13;6.13;;;5.17;;
6195;SDS011;3131;42.630;23.382;2023-04-30T01:41:53;10.27;;;5.27;;
6195;SDS011;3131;42.630;23.382;2023-04-30T01:44:25;10.27;;;5.60;;
6195;SDS011;3131;42.630;23.382;2023-04-30T01:47:00;6.23;;;5.07;;
6195;SDS011;3131;42.630;23.382;2023-04-30T01:49:35;7.10;;;4.93;;
6195;SDS011;3131;42.630;23.382;2023-04-30T01:52:08;11.67;;;5.73;;
6195;SDS011;3131;42.630;23.382;2023-04-30T01:54:42;8.60;;;5.50;;
6195;SDS011;3131;42.630;23.382;2023-04-30T01:57:15;6.47;;;4.60;;
6195;SDS011;3131;42.630;23.382;2023-04-30T01:59:46;8.30;;;5.50;;
6195;SDS011;3131;42.630;23.382;2023-04-30T02:02:16;8.27;;;5.57;;
6195;SDS011;3131;42.630;23.382;2023-04-30T02:04:45;13.30;;;7.07;;
6195;SDS011;3131;42.630;23.382;2023-04-30T02:07:16;12.00;;;6.37;;
6195;SDS011;3131;42.630;23.382;2023-04-30T02:09:47;8.03;;;6.17;;
6195;SDS011;3131;42.630;23.382;2023-04-30T02:12:16;12.90;;;6.63;;
6195;SDS011;3131;42.630;23.382;2023-04-30T02:14:46;13.23;;;7.40;;
6195;SDS011;3131;42.630;23.382;2023-04-30T02:17:15;13.97;;;6.47;;
6195;SDS011;3131;42.630;23.382;2023-04-30T02:19:44;13.30;;;7.27;;
6195;SDS011;3131;42.630;23.382;2023-04-30T02:22:13;11.40;;;6.50;;
6195;SDS011;3131;42.630;23.382;2023-04-30T02:24:43;10.03;;;6.20;;
6195;SDS011;3131;42.630;23.382;2023-04-30T02:27:12;18.67;;;7.33;;
6195;SDS011;3131;42.630;23.382;2023-04-30T02:29:41;16.00;;;7.47;;
6195;SDS011;3131;42.630;23.382;2023-04-30T02:32:10;15.87;;;7.27;;
6195;SDS011;3131;42.630;23.382;2023-04-30T02:34:41;10.83;;;6.37;;
6195;SDS011;3131;42.630;23.382;2023-04-30T02:37:10;12.67;;;6.10;;
6195;SDS011;3131;42.630;23.382;2023-04-30T02:39:39;10.30;;;6.10;;
6195;SDS011;3131;42.630;23.382;2023-04-30T02:42:20;9.90;;;5.93;;
6195;SDS011;3131;42.630;23.382;2023-04-30T02:44:49;9.70;;;5.53;;
6195;SDS011;3131;42.630;23.382;2023-04-30T02:47:18;8.53;;;4.83;;
6195;SDS011;3131;42.630;23.382;2023-04-30T02:49:47;9.63;;;4.80;;
6195;SDS011;3131;42.630;23.382;2023-04-30T02:52:16;13.93;;;5.30;;
6195;SDS011;3131;42.630;23.382;2023-04-30T02:54:45;8.20;;;5.30;;
6195;SDS011;3131;42.630;23.382;2023-04-30T02:57:16;6.77;;;5.07;;
6195;SDS011;3131;42.630;23.382;2023-04-30T02:59:45;11.73;;;5.67;;
6195;SDS011;3131;42.630;23.382;2023-04-30T03:02:14;9.67;;;4.67;;
6195;SDS011;3131;42.630;23.382;2023-04-30T03:04:45;7.00;;;4.63;;
6195;SDS011;3131;42.630;23.382;2023-04-30T03:07:15;9.10;;;5.07;;
6195;SDS011;3131;42.630;23.382;2023-04-30T03:09:44;6.63;;;4.90;;
6195;SDS011;3131;42.630;23.382;2023-04-30T03:12:14;13.73;;;4.73;;
6195;SDS011;3131;42.630;23.382;2023-04-30T03:14:43;10.43;;;4.20;;
6195;SDS011;3131;42.630;23.382;2023-04-30T03:17:13;4.60;;;3.90;;
6195;SDS011;3131;42.630;23.382;2023-04-30T03:19:42;10.23;;;4.70;;
6195;SDS011;3131;42.630;23.382;2023-04-30T03:22:12;6.73;;;5.07;;
6195;SDS011;3131;42.630;23.382;2023-04-30T03:24:41;6.47;;;4.27;;
6195;SDS011;3131;42.630;23.382;2023-04-30T03:27:10;7.70;;;4.50;;
6195;SDS011;3131;42.630;23.382;2023-04-30T03:29:41;6.10;;;5.00;;
6195;SDS011;3131;42.630;23.382;2023-04-30T03:32:11;4.50;;;4.03;;
6195;SDS011;3131;42.630;23.382;2023-04-30T03:34:40;6.93;;;4.87;;
6195;SDS011;3131;42.630;23.382;2023-04-30T03:37:09;6.93;;;4.53;;
6195;SDS011;3131;42.630;23.382;2023-04-30T03:39:39;5.73;;;4.40;;
6195;SDS011;3131;42.630;23.382;2023-04-30T03:42:09;8.80;;;4.40;;
6195;SDS011;3131;42.630;23.382;2023-04-30T03:44:38;10.00;;;4.80;;
6195;SDS011;3131;42.630;23.382;2023-04-30T03:47:07;12.43;;;5.00;;
6195;SDS011;3131;42.630;23.382;2023-04-30T03:49:37;7.27;;;4.63;;
6195;SDS011;3131;42.630;23.382;2023-04-30T03:52:06;9.47;;;3.67;;
6195;SDS011;3131;42.630;23.382;2023-04-30T03:54:36;6.33;;;4.47;;
6195;SDS011;3131;42.630;23.382;2023-04-30T03:57:06;4.47;;;3.30;;
6195;SDS011;3131;42.630;23.382;2023-04-30T03:59:37;8.90;;;5.00;;
6195;SDS011;3131;42.630;23.382;2023-04-30T04:02:07;9.40;;;5.03;;
6195;SDS011;3131;42.630;23.382;2023-04-30T04:04:36;8.07;;;5.60;;
6195;SDS011;3131;42.630;23.382;2023-04-30T04:07:05;7.03;;;4.40;;
6195;SDS011;3131;42.630;23.382;2023-04-30T04:09:36;8.10;;;5.10;;
6195;SDS011;3131;42.630;23.382;2023-04-30T04:12:05;7.30;;;4.90;;
6195;SDS011;3131;42.630;23.382;2023-04-30T04:14:35;9.20;;;5.07;;
6195;SDS011;3131;42.630;23.382;2023-04-30T04:17:16;7.30;;;4.67;;
6195;SDS011;3131;42.630;23.382;2023-04-30T04:19:46;16.93;;;4.90;;
6195;SDS011;3131;42.630;23.382;2023-04-30T04:22:15;6.03;;;5.10;;
6195;SDS011;3131;42.630;23.382;2023-04-30T04:24:44;6.30;;;4.80;;
6195;SDS011;3131;42.630;23.382;2023-04-30T04:27:14;11.40;;;5.20;;
6195;SDS011;3131;42.630;23.382;2023-04-30T04:29:43;8.90;;;5.20;;
6195;SDS011;3131;42.630;23.382;2023-04-30T04:32:23;15.73;;;5.47;;
6195;SDS011;3131;42.630;23.382;2023-04-30T04:34:53;7.47;;;5.43;;
6195;SDS011;3131;42.630;23.382;2023-04-30T04:37:23;9.10;;;4.97;;
6195;SDS011;3131;42.630;23.382;2023-04-30T04:39:52;6.47;;;4.80;;
6195;SDS011;3131;42.630;23.382;2023-04-30T04:42:21;7.07;;;4.50;;
6195;SDS011;3131;42.630;23.382;2023-04-30T04:44:50;5.63;;;4.20;;
6195;SDS011;3131;42.630;23.382;2023-04-30T04:47:19;10.03;;;4.83;;
6195;SDS011;3131;42.630;23.382;2023-04-30T04:49:49;7.33;;;5.03;;
6195;SDS011;3131;42.630;23.382;2023-04-30T04:52:18;9.63;;;5.50;;
6195;SDS011;3131;42.630;23.382;2023-04-30T04:54:47;10.60;;;5.10;;
6195;SDS011;3131;42.630;23.382;2023-04-30T04:57:16;13.70;;;5.47;;
6195;SDS011;3131;42.630;23.382;2023-04-30T04:59:45;10.80;;;6.00;;
6195;SDS011;3131;42.630;23.382;2023-04-30T05:02:14;15.03;;;5.30;;
6195;SDS011;3131;42.630;23.382;2023-04-30T05:04:44;15.90;;;5.63;;
6195;SDS011;3131;42.630;23.382;2023-04-30T05:07:15;13.37;;;6.03;;
6195;SDS011;3131;42.630;23.382;2023-04-30T05:09:44;11.20;;;5.40;;
6195;SDS011;3131;42.630;23.382;2023-04-30T05:12:13;12.13;;;5.83;;
6195;SDS011;3131;42.630;23.382;2023-04-30T05:14:43;12.50;;;6.67;;
6195;SDS011;3131;42.630;23.382;2023-04-30T05:17:12;8.87;;;6.03;;
6195;SDS011;3131;42.630;23.382;2023-04-30T05:19:42;13.23;;;6.60;;
6195;SDS011;3131;42.630;23.382;2023-04-30T05:22:14;16.50;;;6.37;;
6195;SDS011;3131;42.630;23.382;2023-04-30T05:24:43;12.70;;;5.87;;
6195;SDS011;3131;42.630;23.382;2023-04-30T05:27:12;12.53;;;5.87;;
6195;SDS011;3131;42.630;23.382;2023-04-30T05:29:41;11.97;;;5.80;;
6195;SDS011;3131;42.630;23.382;2023-04-30T05:32:11;13.47;;;5.73;;
6195;SDS011;3131;42.630;23.382;2023-04-30T05:34:40;19.23;;;9.47;;
6195;SDS011;3131;42.630;23.382;2023-04-30T05:37:10;15.07;;;5.90;;
6195;SDS011;3131;42.630;23.382;2023-04-30T05:39:40;18.87;;;7.37;;
6195;SDS011;3131;42.630;23.382;2023-04-30T05:42:09;9.83;;;5.83;;
6195;SDS011;3131;42.630;23.382;2023-04-30T05:44:38;12.20;;;6.43;;
6195;SDS011;3131;42.630;23.382;2023-04-30T05:47:08;15.43;;;5.90;;
6195;SDS011;3131;42.630;23.382;2023-04-30T05:49:37;19.00;;;8.03;;
6195;SDS011;3131;42.630;23.382;2023-04-30T05:52:06;17.60;;;6.80;;
6195;SDS011;3131;42.630;23.382;2023-04-30T05:54:35;14.07;;;6.90;;
6195;SDS011;3131;42.630;23.382;2023-04-30T05:57:04;11.07;;;6.27;;
6195;SDS011;3131;42.630;23.382;2023-04-30T05:59:33;11.07;;;6.03;;
6195;SDS011;3131;42.630;23.382;2023-04-30T06:02:02;13.10;;;5.60;;
6195;SDS011;3131;42.630;23.382;2023-04-30T06:04:31;13.97;;;6.53;;
6195;SDS011;3131;42.630;23.382;2023-04-30T06:07:01;14.10;;;6.60;;
6195;SDS011;3131;42.630;23.382;2023-04-30T06:09:30;17.13;;;6.23;;
6195;SDS011;3131;42.630;23.382;2023-04-30T06:11:59;10.63;;;6.83;;
6195;SDS011;3131;42.630;23.382;2023-04-30T06:14:29;10.63;;;6.33;;
6195;SDS011;3131;42.630;23.382;2023-04-30T06:16:58;8.43;;;5.30;;
6195;SDS011;3131;42.630;23.382;2023-04-30T06:19:28;11.23;;;4.80;;
6195;SDS011;3131;42.630;23.382;2023-04-30T06:21:57;12.83;;;5.87;;
6195;SDS011;3131;42.630;23.382;2023-04-30T06:24:26;7.10;;;4.87;;
6195;SDS011;3131;42.630;23.382;2023-04-30T06:26:56;11.53;;;5.47;;
6195;SDS011;3131;42.630;23.382;2023-04-30T06:29:25;8.10;;;5.17;;
6195;SDS011;3131;42.630;23.382;2023-04-30T06:31:54;6.93;;;5.40;;
6195;SDS011;3131;42.630;23.382;2023-04-30T06:34:23;15.73;;;5.97;;
6195;SDS011;3131;42.630;23.382;2023-04-30T06:36:53;9.90;;;5.70;;
6195;SDS011;3131;42.630;23.382;2023-04-30T06:39:22;7.57;;;5.33;;
6195;SDS011;3131;42.630;23.382;2023-04-30T06:41:51;14.47;;;5.57;;
6195;SDS011;3131;42.630;23.382;2023-04-30T06:44:21;9.10;;;5.57;;
6195;SDS011;3131;42.630;23.382;2023-04-30T06:46:50;13.27;;;5.30;;
6195;SDS011;3131;42.630;23.382;2023-04-30T06:49:19;8.43;;;5.53;;
6195;SDS011;3131;42.630;23.382;2023-04-30T06:51:48;13.30;;;7.10;;
6195;SDS011;3131;42.630;23.382;2023-04-30T06:54:17;18.03;;;6.93;;
6195;SDS011;3131;42.630;23.382;2023-04-30T06:56:47;14.87;;;6.63;;
6195;SDS011;3131;42.630;23.382;2023-04-30T06:59:17;14.87;;;7.60;;
6195;SDS011;3131;42.630;23.382;2023-04-30T07:01:46;16.53;;;7.80;;
6195;SDS011;3131;42.630;23.382;2023-04-30T07:04:15;13.23;;;7.23;;
6195;SDS011;3131;42.630;23.382;2023-04-30T07:06:45;22.73;;;8.30;;
6195;SDS011;3131;42.630;23.382;2023-04-30T07:09:14;13.37;;;7.67;;
6195;SDS011;3131;42.630;23.382;2023-04-30T07:11:44;17.63;;;8.40;;
6195;SDS011;3131;42.630;23.382;2023-04-30T07:14:13;15.77;;;8.17;;
6195;SDS011;3131;42.630;23.382;2023-04-30T07:16:42;14.63;;;8.70;;
6195;SDS011;3131;42.630;23.382;2023-04-30T07:19:13;14.43;;;8.80;;
6195;SDS011;3131;42.630;23.382;2023-04-30T07:21:42;17.33;;;9.70;;
6195;SDS011;3131;42.630;23.382;2023-04-30T07:24:12;13.40;;;8.67;;
6195;SDS011;3131;42.630;23.382;2023-04-30T07:26:41;17.57;;;8.80;;
6195;SDS011;3131;42.630;23.382;2023-04-30T07:29:10;20.57;;;9.83;;
6195;SDS011;3131;42.630;23.382;2023-04-30T07:31:40;20.63;;;9.47;;
6195;SDS011;3131;42.630;23.382;2023-04-30T07:34:09;16.67;;;9.63;;
6195;SDS011;3131;42.630;23.382;2023-04-30T07:36:38;18.43;;;9.00;;
6195;SDS011;3131;42.630;23.382;2023-04-30T07:39:08;22.10;;;9.30;;
6195;SDS011;3131;42.630;23.382;2023-04-30T07:41:37;15.20;;;9.10;;
6195;SDS011;3131;42.630;23.382;2023-04-30T07:44:07;14.97;;;9.40;;
6195;SDS011;3131;42.630;23.382;2023-04-30T07:46:37;23.27;;;9.97;;
6195;SDS011;3131;42.630;23.382;2023-04-30T07:49:06;22.37;;;9.80;;
6195;SDS011;3131;42.630;23.382;2023-04-30T07:51:35;23.93;;;9.53;;
6195;SDS011;3131;42.630;23.382;2023-04-30T07:54:05;17.67;;;8.87;;
6195;SDS011;3131;42.630;23.382;2023-04-30T07:56:34;19.60;;;8.80;;
6195;SDS011;3131;42.630;23.382;2023-04-30T07:59:03;18.37;;;10.43;;
6195;SDS011;3131;42.630;23.382;2023-04-30T08:01:33;24.57;;;9.50;;
6195;SDS011;3131;42.630;23.382;2023-04-30T08:04:02;14.50;;;8.90;;
6195;SDS011;3131;42.630;23.382;2023-04-30T08:06:32;19.33;;;10.00;;
6195;SDS011;3131;42.630;23.382;2023-04-30T08:09:02;22.70;;;9.17;;
6195;SDS011;3131;42.630;23.382;2023-04-30T08:11:31;16.10;;;8.70;;
6195;SDS011;3131;42.630;23.382;2023-04-30T08:14:00;19.33;;;8.57;;
6195;SDS011;3131;42.630;23.382;2023-04-30T08:16:30;17.43;;;7.70;;
6195;SDS011;3131;42.630;23.382;2023-04-30T08:18:59;14.40;;;6.77;;
6195;SDS011;3131;42.630;23.382;2023-04-30T08:21:30;15.03;;;7.40;;
6195;SDS011;3131;42.630;23.382;2023-04-30T08:23:59;10.77;;;5.77;;
6195;SDS011;3131;42.630;23.382;2023-04-30T08:26:29;14.90;;;5.80;;
6195;SDS011;3131;42.630;23.382;2023-04-30T08:28:58;10.30;;;5.30;;
6195;SDS011;3131;42.630;23.382;2023-04-30T08:31:27;12.30;;;5.80;;
6195;SDS011;3131;42.630;23.382;2023-04-30T08:33:57;11.87;;;5.50;;
6195;SDS011;3131;42.630;23.382;2023-04-30T08:36:26;7.50;;;5.27;;
6195;SDS011;3131;42.630;23.382;2023-04-30T08:38:56;9.77;;;5.80;;
6195;SDS011;3131;42.630;23.382;2023-04-30T08:41:36;7.53;;;4.63;;
6195;SDS011;3131;42.630;23.382;2023-04-30T08:44:08;8.33;;;4.30;;
6195;SDS011;3131;42.630;23.382;2023-04-30T08:46:39;7.57;;;4.23;;
6195;SDS011;3131;42.630;23.382;2023-04-30T08:49:10;13.23;;;4.37;;
6195;SDS011;3131;42.630;23.382;2023-04-30T08:51:40;11.73;;;5.00;;
6195;SDS011;3131;42.630;23.382;2023-04-30T08:54:09;8.17;;;4.33;;
6195;SDS011;3131;42.630;23.382;2023-04-30T08:56:40;6.80;;;3.77;;
6195;SDS011;3131;42.630;23.382;2023-04-30T08:59:10;9.47;;;4.30;;
6195;SDS011;3131;42.630;23.382;2023-04-30T09:01:40;5.83;;;4.20;;
6195;SDS011;3131;42.630;23.382;2023-04-30T09:04:09;6.50;;;3.93;;
6195;SDS011;3131;42.630;23.382;2023-04-30T09:06:39;6.63;;;4.00;;
6195;SDS011;3131;42.630;23.382;2023-04-30T09:09:08;6.67;;;3.97;;
6195;SDS011;3131;42.630;23.382;2023-04-30T09:11:39;14.43;;;4.00;;
6195;SDS011;3131;42.630;23.382;2023-04-30T09:14:09;8.57;;;4.30;;
6195;SDS011;3131;42.630;23.382;2023-04-30T09:16:48;11.83;;;4.07;;
6195;SDS011;3131;42.630;23.382;2023-04-30T09:19:24;8.83;;;4.37;;
6195;SDS011;3131;42.630;23.382;2023-04-30T09:21:55;5.57;;;4.40;;
6195;SDS011;3131;42.630;23.382;2023-04-30T09:24:24;9.80;;;4.10;;
6195;SDS011;3131;42.630;23.382;2023-04-30T09:26:53;8.57;;;4.67;;
6195;SDS011;3131;42.630;23.382;2023-04-30T09:29:24;5.80;;;3.97;;
6195;SDS011;3131;42.630;23.382;2023-04-30T09:32:17;8.70;;;4.30;;
6195;SDS011;3131;42.630;23.382;2023-04-30T09:34:46;5.90;;;3.63;;
6195;SDS011;3131;42.630;23.382;2023-04-30T09:37:15;7.97;;;4.47;;
6195;SDS011;3131;42.630;23.382;2023-04-30T09:39:47;3.93;;;2.97;;
6195;SDS011;3131;42.630;23.382;2023-04-30T09:42:17;4.83;;;2.90;;
6195;SDS011;3131;42.630;23.382;2023-04-30T09:44:47;3.67;;;3.00;;
6195;SDS011;3131;42.630;23.382;2023-04-30T09:47:18;7.73;;;3.47;;
6195;SDS011;3131;42.630;23.382;2023-04-30T09:49:48;6.80;;;3.73;;
6195;SDS011;3131;42.630;23.382;2023-04-30T09:52:18;3.33;;;3.03;;
6195;SDS011;3131;42.630;23.382;2023-04-30T09:54:47;4.77;;;3.30;;
6195;SDS011;3131;42.630;23.382;2023-04-30T09:57:17;4.07;;;3.20;;
6195;SDS011;3131;42.630;23.382;2023-04-30T09:59:48;7.57;;;3.17;;
6195;SDS011;3131;42.630;23.382;2023-04-30T10:02:19;7.23;;;3.37;;
6195;SDS011;3131;42.630;23.382;2023-04-30T10:04:54;10.63;;;3.63;;
6195;SDS011;3131;42.630;23.382;2023-04-30T10:07:33;4.47;;;3.30;;
6195;SDS011;3131;42.630;23.382;2023-04-30T10:10:07;6.50;;;3.20;;
6195;SDS011;3131;42.630;23.382;2023-04-30T10:12:38;6.33;;;3.77;;
6195;SDS011;3131;42.630;23.382;2023-04-30T10:15:10;5.00;;;3.77;;
6195;SDS011;3131;42.630;23.382;2023-04-30T10:17:42;5.03;;;3.20;;
6195;SDS011;3131;42.630;23.382;2023-04-30T10:20:14;5.50;;;3.93;;
6195;SDS011;3131;42.630;23.382;2023-04-30T10:22:46;5.13;;;3.30;;
6195;SDS011;3131;42.630;23.382;2023-04-30T10:25:17;6.23;;;3.33;;
6195;SDS011;3131;42.630;23.382;2023-04-30T10:27:48;7.30;;;4.33;;
6195;SDS011;3131;42.630;23.382;2023-04-30T10:30:35;2.87;;;2.57;;
6195;SDS011;3131;42.630;23.382;2023-04-30T10:33:05;6.50;;;3.23;;
6195;SDS011;3131;42.630;23.382;2023-04-30T10:35:57;4.20;;;3.40;;
6195;SDS011;3131;42.630;23.382;2023-04-30T10:38:29;8.10;;;4.07;;
6195;SDS011;3131;42.630;23.382;2023-04-30T10:40:59;4.77;;;4.27;;
6195;SDS011;3131;42.630;23.382;2023-04-30T10:43:29;9.10;;;3.87;;
6195;SDS011;3131;42.630;23.382;2023-04-30T10:46:00;8.47;;;4.30;;
6195;SDS011;3131;42.630;23.382;2023-04-30T10:48:30;4.47;;;3.43;;
6195;SDS011;3131;42.630;23.382;2023-04-30T10:51:01;5.53;;;4.27;;
6195;SDS011;3131;42.630;23.382;2023-04-30T10:53:31;4.27;;;2.80;;
6195;SDS011;3131;42.630;23.382;2023-04-30T10:56:02;4.23;;;3.00;;
6195;SDS011;3131;42.630;23.382;2023-04-30T10:58:34;3.20;;;2.90;;
6195;SDS011;3131;42.630;23.382;2023-04-30T11:01:05;3.27;;;2.97;;
6195;SDS011;3131;42.630;23.382;2023-04-30T11:03:36;4.63;;;2.63;;
6195;SDS011;3131;42.630;23.382;2023-04-30T11:06:07;2.60;;;2.40;;
6195;SDS011;3131;42.630;23.382;2023-04-30T11:08:44;3.93;;;3.13;;
6195;SDS011;3131;42.630;23.382;2023-04-30T11:11:17;9.10;;;3.20;;
6195;SDS011;3131;42.630;23.382;2023-04-30T11:13:47;7.97;;;2.90;;
6195;SDS011;3131;42.630;23.382;2023-04-30T11:16:19;6.93;;;3.87;;
6195;SDS011;3131;42.630;23.382;2023-04-30T11:19:05;8.27;;;3.67;;
6195;SDS011;3131;42.630;23.382;2023-04-30T11:21:39;5.17;;;3.30;;
6195;SDS011;3131;42.630;23.382;2023-04-30T11:24:09;8.83;;;3.47;;
6195;SDS011;3131;42.630;23.382;2023-04-30T11:29:32;3.47;;;2.10;;
6195;SDS011;3131;42.630;23.382;2023-04-30T11:32:03;3.43;;;2.20;;
6195;SDS011;3131;42.630;23.382;2023-04-30T11:34:34;2.73;;;2.40;;
6195;SDS011;3131;42.630;23.382;2023-04-30T11:37:04;12.10;;;3.30;;
6195;SDS011;3131;42.630;23.382;2023-04-30T11:39:35;6.17;;;3.00;;
6195;SDS011;3131;42.630;23.382;2023-04-30T11:42:06;4.57;;;2.60;;
6195;SDS011;3131;42.630;23.382;2023-04-30T11:44:37;9.20;;;2.70;;
6195;SDS011;3131;42.630;23.382;2023-04-30T11:47:06;5.73;;;2.50;;
6195;SDS011;3131;42.630;23.382;2023-04-30T11:49:35;4.23;;;3.13;;
6195;SDS011;3131;42.630;23.382;2023-04-30T11:52:05;4.40;;;3.03;;
6195;SDS011;3131;42.630;23.382;2023-04-30T11:54:35;8.73;;;3.43;;
6195;SDS011;3131;42.630;23.382;2023-04-30T11:57:05;10.37;;;3.47;;
6195;SDS011;3131;42.630;23.382;2023-04-30T11:59:40;4.00;;;2.40;;
6195;SDS011;3131;42.630;23.382;2023-04-30T12:02:10;5.67;;;2.93;;
6195;SDS011;3131;42.630;23.382;2023-04-30T12:04:42;5.77;;;2.73;;
6195;SDS011;3131;42.630;23.382;2023-04-30T12:07:13;5.70;;;2.87;;
6195;SDS011;3131;42.630;23.382;2023-04-30T12:09:52;6.07;;;2.97;;
6195;SDS011;3131;42.630;23.382;2023-04-30T12:12:31;2.80;;;2.47;;
6195;SDS011;3131;42.630;23.382;2023-04-30T12:15:11;2.50;;;2.30;;
6195;SDS011;3131;42.630;23.382;2023-04-30T12:17:42;7.33;;;2.30;;
6195;SDS011;3131;42.630;23.382;2023-04-30T12:20:12;4.30;;;2.57;;
6195;SDS011;3131;42.630;23.382;2023-04-30T12:22:43;3.03;;;2.10;;
6195;SDS011;3131;42.630;23.382;2023-04-30T12:25:13;2.20;;;2.00;;
6195;SDS011;3131;42.630;23.382;2023-04-30T12:27:45;3.90;;;2.13;;
6195;SDS011;3131;42.630;23.382;2023-04-30T12:30:17;4.50;;;2.33;;
6195;SDS011;3131;42.630;23.382;2023-04-30T12:32:58;2.73;;;2.50;;
6195;SDS011;3131;42.630;23.382;2023-04-30T12:35:28;3.33;;;2.90;;
6195;SDS011;3131;42.630;23.382;2023-04-30T12:38:01;4.80;;;2.80;;
6195;SDS011;3131;42.630;23.382;2023-04-30T12:40:29;3.37;;;3.00;;
6195;SDS011;3131;42.630;23.382;2023-04-30T12:42:59;4.00;;;3.00;;
6195;SDS011;3131;42.630;23.382;2023-04-30T12:45:43;3.50;;;2.63;;
6195;SDS011;3131;42.630;23.382;2023-04-30T12:48:11;4.00;;;2.70;;
6195;SDS011;3131;42.630;23.382;2023-04-30T12:50:38;3.47;;;3.07;;
6195;SDS011;3131;42.630;23.382;2023-04-30T12:53:06;3.33;;;2.53;;
6195;SDS011;3131;42.630;23.382;2023-04-30T12:55:34;3.17;;;2.83;;
6195;SDS011;3131;42.630;23.382;2023-04-30T12:58:06;5.40;;;2.87;;
6195;SDS011;3131;42.630;23.382;2023-04-30T13:00:43;5.63;;;3.20;;
6195;SDS011;3131;42.630;23.382;2023-04-30T13:03:11;5.20;;;2.93;;
6195;SDS011;3131;42.630;23.382;2023-04-30T13:05:39;11.53;;;3.87;;
6195;SDS011;3131;42.630;23.382;2023-04-30T13:08:07;11.80;;;3.73;;
6195;SDS011;3131;42.630;23.382;2023-04-30T13:10:35;15.90;;;3.80;;
6195;SDS011;3131;42.630;23.382;2023-04-30T13:13:02;7.00;;;3.13;;
6195;SDS011;3131;42.630;23.382;2023-04-30T13:15:30;4.87;;;2.30;;
6195;SDS011;3131;42.630;23.382;2023-04-30T13:17:57;3.70;;;2.37;;
6195;SDS011;3131;42.630;23.382;2023-04-30T13:20:25;7.30;;;2.73;;
6195;SDS011;3131;42.630;23.382;2023-04-30T13:22:52;5.27;;;2.20;;
6195;SDS011;3131;42.630;23.382;2023-04-30T13:25:20;4.70;;;2.53;;
6195;SDS011;3131;42.630;23.382;2023-04-30T13:27:48;3.27;;;2.30;;
6195;SDS011;3131;42.630;23.382;2023-04-30T13:30:15;4.60;;;2.40;;
6195;SDS011;3131;42.630;23.382;2023-04-30T13:32:43;4.40;;;2.53;;
6195;SDS011;3131;42.630;23.382;2023-04-30T13:35:11;2.83;;;2.37;;
6195;SDS011;3131;42.630;23.382;2023-04-30T13:37:38;2.90;;;2.57;;
6195;SDS011;3131;42.630;23.382;2023-04-30T13:40:07;3.00;;;2.30;;
6195;SDS011;3131;42.630;23.382;2023-04-30T13:42:35;4.83;;;2.90;;
6195;SDS011;3131;42.630;23.382;2023-04-30T13:45:04;3.20;;;2.63;;
6195;SDS011;3131;42.630;23.382;2023-04-30T13:47:32;4.30;;;2.37;;
6195;SDS011;3131;42.630;23.382;2023-04-30T13:50:00;5.07;;;2.97;;
6195;SDS011;3131;42.630;23.382;2023-04-30T13:52:28;3.53;;;2.43;;
6195;SDS011;3131;42.630;23.382;2023-04-30T13:54:55;3.20;;;2.73;;
6195;SDS011;3131;42.630;23.382;2023-04-30T13:57:23;6.33;;;3.03;;
6195;SDS011;3131;42.630;23.382;2023-04-30T13:59:51;4.50;;;3.07;;
6195;SDS011;3131;42.630;23.382;2023-04-30T14:02:18;5.17;;;3.73;;
6195;SDS011;3131;42.630;23.382;2023-04-30T14:04:46;8.90;;;3.43;;
6195;SDS011;3131;42.630;23.382;2023-04-30T14:07:13;6.10;;;3.50;;
6195;SDS011;3131;42.630;23.382;2023-04-30T14:12:43;4.47;;;3.10;;
6195;SDS011;3131;42.630;23.382;2023-04-30T14:15:11;5.80;;;3.30;;
6195;SDS011;3131;42.630;23.382;2023-04-30T14:17:39;4.20;;;2.60;;
6195;SDS011;3131;42.630;23.382;2023-04-30T14:20:08;4.23;;;2.57;;
6195;SDS011;3131;42.630;23.382;2023-04-30T14:22:36;3.10;;;2.77;;
6195;SDS011;3131;42.630;23.382;2023-04-30T14:25:05;3.73;;;2.13;;
6195;SDS011;3131;42.630;23.382;2023-04-30T14:27:32;3.73;;;2.40;;
6195;SDS011;3131;42.630;23.382;2023-04-30T14:30:00;3.10;;;2.17;;
6195;SDS011;3131;42.630;23.382;2023-04-30T14:32:28;4.43;;;2.80;;
6195;SDS011;3131;42.630;23.382;2023-04-30T14:34:56;3.70;;;2.60;;
6195;SDS011;3131;42.630;23.382;2023-04-30T14:37:24;3.95;;;2.52;;
6195;SDS011;3131;42.630;23.382;2023-04-30T14:39:51;2.67;;;2.10;;
6195;SDS011;3131;42.630;23.382;2023-04-30T14:42:19;3.30;;;2.43;;
6195;SDS011;3131;42.630;23.382;2023-04-30T14:44:46;8.87;;;3.10;;
6195;SDS011;3131;42.630;23.382;2023-04-30T14:47:14;3.20;;;2.60;;
6195;SDS011;3131;42.630;23.382;2023-04-30T14:49:42;4.63;;;2.70;;
6195;SDS011;3131;42.630;23.382;2023-04-30T14:52:09;3.80;;;2.50;;
6195;SDS011;3131;42.630;23.382;2023-04-30T14:54:37;4.90;;;2.23;;
6195;SDS011;3131;42.630;23.382;2023-04-30T14:57:04;5.97;;;2.50;;
6195;SDS011;3131;42.630;23.382;2023-04-30T14:59:32;4.73;;;2.30;;
6195;SDS011;3131;42.630;23.382;2023-04-30T15:02:00;3.00;;;2.40;;
6195;SDS011;3131;42.630;23.382;2023-04-30T15:04:28;4.67;;;2.40;;
6195;SDS011;3131;42.630;23.382;2023-04-30T15:06:57;4.83;;;2.83;;
6195;SDS011;3131;42.630;23.382;2023-04-30T15:09:25;6.23;;;2.63;;
6195;SDS011;3131;42.630;23.382;2023-04-30T15:11:53;2.40;;;2.20;;
6195;SDS011;3131;42.630;23.382;2023-04-30T15:14:21;4.23;;;2.87;;
6195;SDS011;3131;42.630;23.382;2023-04-30T15:16:48;4.47;;;2.87;;
6195;SDS011;3131;42.630;23.382;2023-04-30T15:19:16;5.43;;;2.97;;
6195;SDS011;3131;42.630;23.382;2023-04-30T15:21:43;4.03;;;3.07;;